Time;durP1;ratioP1;P1;durP2;ratioP2;P2;SDS_P1;SDS_P2;PMS_P1;PMS_P2;Temp;Humidity;BMP_temperature;BMP_pressure;BME280_temperature;BME280_humidity;BME280_pressure;Samples;Min_cycle;Max_cycle;Signal;HPM_P1;HPM_P2
2021/04/27 00:01:06;;;;;;;3.15;2.83;;;;;;;16.86;32.87;99295.34;5035834;28;20029;-76
2021/04/27 00:03:32;;;;;;;4.10;3.05;;;;;;;16.99;32.75;99295.16;5036497;28;20091;-79
2021/04/27 00:05:58;;;;;;;4.00;2.85;;;;;;;16.16;32.54;99165.16;5035907;28;20037;-77
2021/04/27 00:08:23;;;;;;;4.90;3.03;;;;;;;17.02;32.64;99302.72;5035566;28;20036;-76
2021/04/27 00:10:49;;;;;;;4.93;2.88;;;;;;;16.82;32.64;99284.31;5035704;28;20363;-79
2021/04/27 00:13:14;;;;;;;7.13;3.30;;;;;;;16.80;32.87;99277.56;5036284;28;20026;-78
2021/04/27 00:15:41;;;;;;;5.40;3.30;;;;;;;16.70;33.05;99254.13;5018104;28;20456;-78
2021/04/27 00:18:07;;;;;;;3.78;3.17;;;;;;;17.04;33.02;99305.97;5035456;28;20043;-78
2021/04/27 00:20:32;;;;;;;5.50;3.40;;;;;;;17.04;32.65;99308.63;5035772;28;20104;-76
2021/04/27 00:22:58;;;;;;;3.17;2.80;;;;;;;17.06;32.85;99311.88;5035474;28;20435;-77
2021/04/27 00:25:25;;;;;;;3.78;2.90;;;;;;;16.95;32.66;99291.31;5035392;28;20030;-77
2021/04/27 00:27:52;;;;;;;3.35;3.03;;;;;;;16.65;32.80;99255.78;5035528;28;20100;-77
2021/04/27 00:30:22;;;;;;;5.60;3.50;;;;;;;17.01;32.43;99308.28;5018278;28;20029;-75
2021/04/27 00:32:48;;;;;;;5.03;3.05;;;;;;;16.90;32.89;99303.69;5035363;28;20029;-77
2021/04/27 00:35:15;;;;;;;3.42;2.85;;;;;;;16.89;32.82;99300.22;5035048;28;20352;-78
2021/04/27 00:37:41;;;;;;;3.97;3.13;;;;;;;16.80;32.51;99290.91;5017640;28;20400;-78
2021/04/27 00:40:09;;;;;;;4.40;3.13;;;;;;;16.05;32.86;99179.22;5018551;28;20056;-78
2021/04/27 00:42:37;;;;;;;4.55;2.88;;;;;;;16.82;32.95;99305.63;5035218;28;20029;-76
2021/04/27 00:45:07;;;;;;;5.43;3.30;;;;;;;16.86;32.97;99303.34;5035149;28;20029;-78
2021/04/27 00:47:33;;;;;;;4.35;3.08;;;;;;;16.51;32.86;99250.63;5018359;28;20025;-76
2021/04/27 00:49:58;;;;;;;3.72;2.90;;;;;;;16.41;32.88;99220.22;5037833;28;20032;-77
2021/04/27 00:52:24;;;;;;;3.40;3.05;;;;;;;16.79;33.44;99295.41;5035803;28;20021;-77
2021/04/27 00:54:51;;;;;;;5.28;3.50;;;;;;;16.46;33.41;99231.00;5034879;28;20037;-78
2021/04/27 00:57:18;;;;;;;4.65;3.30;;;;;;;16.86;33.48;99295.34;5017279;28;20396;-78
2021/04/27 00:59:43;;;;;;;4.55;3.20;;;;;;;16.77;33.41;99288.69;5035013;28;20031;-77
2021/04/27 01:02:09;;;;;;;4.68;3.08;;;;;;;16.30;33.21;99221.75;5034783;28;20017;-77
2021/04/27 01:04:34;;;;;;;3.10;2.70;;;;;;;16.86;33.33;99297.19;5017338;28;20036;-77
2021/04/27 01:07:00;;;;;;;5.70;3.25;;;;;;;16.80;33.38;99294.38;5034815;28;20030;-77
2021/04/27 01:09:58;;;;;;;5.05;3.40;;;;;;;16.33;33.68;99228.47;5035172;28;20033;-78
2021/04/27 01:12:34;;;;;;;4.68;3.20;;;;;;;16.23;33.48;99202.34;5023141;28;20042;-76
2021/04/27 01:15:08;;;;;;;3.78;2.70;;;;;;;16.91;33.70;99300.00;5034736;28;20034;-77
2021/04/27 01:17:34;;;;;;;3.90;3.08;;;;;;;16.86;33.88;99283.84;5034861;28;20340;-77
2021/04/27 01:20:26;;;;;;;6.35;3.65;;;;;;;16.38;33.63;99212.66;5034554;28;20025;-78
2021/04/27 01:22:54;;;;;;;;;;;;;;;16.88;33.81;99303.94;5035363;28;20413;-78
2021/04/27 01:25:42;;;;;;;3.53;3.05;;;;;;;16.95;33.91;99309.19;5034540;28;19998;-77
2021/04/27 01:28:08;;;;;;;5.72;3.08;;;;;;;16.53;34.02;99237.06;5034562;28;20025;-75
2021/04/27 01:30:39;;;;;;;4.43;3.28;;;;;;;17.02;33.92;99312.56;5034509;28;20033;-79
2021/04/27 01:33:11;;;;;;;3.72;2.97;;;;;;;16.80;33.72;99286.38;5034399;28;20025;-79
2021/04/27 01:35:36;;;;;;;;;;;;;;;16.80;34.32;99314.91;5017320;28;20029;-78
2021/04/27 01:38:03;;;;;;;4.70;3.20;;;;;;;16.90;34.03;99303.69;5034488;28;19920;-77
2021/04/27 01:40:28;;;;;;;4.05;3.38;;;;;;;16.83;34.40;99311.78;5034355;28;20092;-77
2021/04/27 01:42:55;;;;;;;6.45;3.25;;;;;;;16.73;34.28;99295.50;5034306;28;20026;-78
2021/04/27 01:45:21;;;;;;;4.00;3.20;;;;;;;16.55;34.30;99268.84;5016801;28;20029;-78
2021/04/27 01:47:47;;;;;;;4.93;3.20;;;;;;;16.81;34.44;99325.34;5034956;28;20029;-78
2021/04/27 01:50:12;;;;;;;5.25;3.25;;;;;;;16.50;34.60;99264.97;5034198;28;20037;-77
2021/04/27 01:52:38;;;;;;;6.35;3.25;;;;;;;16.82;34.73;99318.16;5034283;28;20040;-76
2021/04/27 01:55:06;;;;;;;3.67;2.88;;;;;;;16.23;35.12;99221.00;5017390;28;20036;-79
2021/04/27 01:57:31;;;;;;;5.03;3.15;;;;;;;16.21;34.87;99204.44;5034089;28;20036;-76
2021/04/27 01:59:57;;;;;;;4.05;3.20;;;;;;;16.79;34.84;99303.41;5034323;28;20033;-77
2021/04/27 02:02:22;;;;;;;5.40;3.63;;;;;;;16.76;34.55;99292.38;5034169;28;20021;-78
2021/04/27 02:04:48;;;;;;;4.20;3.00;;;;;;;16.61;34.79;99265.28;5034635;28;20386;-75
2021/04/27 02:07:13;;;;;;;3.67;3.33;;;;;;;16.57;34.71;99264.91;5034277;28;20021;-76
2021/04/27 02:09:39;;;;;;;6.82;3.55;;;;;;;16.19;34.48;99203.84;5016625;28;20124;-75
2021/04/27 02:12:05;;;;;;;3.95;2.83;;;;;;;16.77;34.74;99291.34;5036865;28;20024;-78
2021/04/27 02:14:31;;;;;;;3.20;2.90;;;;;;;16.59;34.85;99256.69;5037936;28;20082;-79
2021/04/27 02:17:05;;;;;;;6.47;3.03;;;;;;;16.80;34.42;99290.91;5037947;28;20025;-78
2021/04/27 02:19:33;;;;;;;7.53;3.58;;;;;;;16.83;34.24;99287.78;5037779;28;20032;-78
2021/04/27 02:22:02;;;;;;;4.45;3.30;;;;;;;16.84;34.22;99292.09;5038238;28;20032;-74
2021/04/27 02:24:28;;;;;;;3.40;3.08;;;;;;;16.30;34.49;99199.63;5020176;28;20025;-77
2021/04/27 02:26:54;;;;;;;5.32;3.58;;;;;;;16.60;34.21;99239.66;5020137;28;20025;-76
2021/04/27 02:29:21;;;;;;;5.35;3.28;;;;;;;16.84;33.93;99274.22;5037579;28;20036;-76
2021/04/27 02:31:47;;;;;;;4.55;3.38;;;;;;;16.36;34.07;99188.09;5038054;28;20025;-78
2021/04/27 02:34:13;;;;;;;3.95;3.53;;;;;;;16.79;34.33;99268.75;5037454;28;20159;-78
2021/04/27 02:36:40;;;;;;;4.63;3.55;;;;;;;16.88;33.96;99263.13;5037488;28;20044;-78
2021/04/27 02:39:08;;;;;;;5.40;3.58;;;;;;;16.86;34.22;99250.00;5019850;28;20029;-78
2021/04/27 02:41:34;;;;;;;4.50;3.20;;;;;;;16.85;34.01;99256.38;5037502;28;20037;-77
2021/04/27 02:44:01;;;;;;;4.10;2.97;;;;;;;16.73;34.02;99236.84;5019783;28;20037;-75
2021/04/27 02:46:27;;;;;;;3.90;3.53;;;;;;;16.67;34.41;99227.91;5020779;28;20350;-75
2021/04/27 02:48:52;;;;;;;4.15;3.20;;;;;;;16.72;34.15;99244.03;5040085;28;20021;-78
2021/04/27 02:51:18;;;;;;;4.25;2.97;;;;;;;16.79;33.92;99255.44;5037544;28;20029;-78
2021/04/27 02:53:43;;;;;;;5.05;3.70;;;;;;;16.77;34.03;99257.50;5037375;28;20029;-77
2021/04/27 02:56:08;;;;;;;3.75;3.10;;;;;;;16.69;34.24;99241.81;5037080;28;20344;-79
2021/04/27 02:58:34;;;;;;;3.58;3.28;;;;;;;16.79;33.96;99278.59;5037005;28;20083;-77
2021/04/27 03:00:59;;;;;;;3.72;3.38;;;;;;;16.78;34.05;99259.13;5037270;28;20052;-75
2021/04/27 03:03:25;;;;;;;3.13;2.78;;;;;;;16.79;33.68;99259.94;5037161;28;20472;-78
2021/04/27 03:05:50;;;;;;;4.20;3.53;;;;;;;16.39;33.98;99193.78;5019412;28;20375;-78
2021/04/27 03:08:16;;;;;;;4.97;3.63;;;;;;;16.30;33.81;99168.47;5036786;28;20391;-76
2021/04/27 03:10:41;;;;;;;3.50;3.03;;;;;;;16.70;34.05;99232.78;5036971;28;20037;-78
2021/04/27 03:13:07;;;;;;;4.13;3.20;;;;;;;16.67;33.69;99235.09;5036695;28;20056;-77
2021/04/27 03:15:33;;;;;;;4.13;3.63;;;;;;;16.76;34.06;99242.53;5036709;28;20030;-79
2021/04/27 03:17:59;;;;;;;3.88;3.08;;;;;;;16.23;33.73;99138.44;5036778;28;20108;-77
2021/04/27 03:20:24;;;;;;;3.97;3.28;;;;;;;16.87;33.60;99248.97;5019032;28;20029;-78
2021/04/27 03:22:49;;;;;;;4.47;3.45;;;;;;;16.17;33.73;99140.13;5018503;28;20333;-77
2021/04/27 03:25:15;;;;;;;4.57;3.50;;;;;;;16.75;33.65;99224.91;5036566;28;20363;-77
2021/04/27 03:27:42;;;;;;;4.82;3.35;;;;;;;16.37;33.75;99163.06;5036597;28;20022;-76
2021/04/27 03:30:10;;;;;;;4.50;3.13;;;;;;;16.85;33.86;99237.72;5036447;28;20068;-75
2021/04/27 03:32:35;;;;;;;5.60;3.47;;;;;;;16.88;33.54;99260.44;5019280;28;20493;-77
2021/04/27 03:35:01;;;;;;;4.03;3.08;;;;;;;16.78;33.54;99232.47;5036627;28;20116;-78
2021/04/27 03:37:26;;;;;;;3.90;3.22;;;;;;;16.53;33.49;99175.78;5036164;28;20034;-79
2021/04/27 03:39:52;;;;;;;5.13;3.63;;;;;;;16.95;33.25;99231.84;5036408;28;20032;-78
2021/04/27 03:42:17;;;;;;;4.65;3.25;;;;;;;16.89;33.18;99214.06;5036423;28;20079;-75
2021/04/27 03:44:43;;;;;;;5.03;3.13;;;;;;;16.94;33.61;99228.34;5036206;28;20059;-76
2021/04/27 03:47:08;;;;;;;4.07;3.20;;;;;;;16.79;33.22;99218.09;5018562;28;20022;-79
2021/04/27 03:49:34;;;;;;;3.85;3.38;;;;;;;16.93;33.21;99225.91;5036332;28;20022;-75
2021/04/27 03:51:59;;;;;;;4.15;3.75;;;;;;;16.81;33.17;99216.03;5018429;28;20021;-78
2021/04/27 03:54:25;;;;;;;6.68;3.67;;;;;;;16.59;33.38;99187.38;5036071;28;20036;-74
2021/04/27 03:56:51;;;;;;;6.00;4.05;;;;;;;16.71;33.66;99180.28;5019423;28;20442;-76
2021/04/27 03:59:16;;;;;;;4.10;3.20;;;;;;;16.91;33.51;99233.31;5035971;28;20431;-78
2021/04/27 04:01:42;;;;;;;4.53;3.20;;;;;;;16.89;33.86;99241.56;5035887;28;20029;-76
2021/04/27 04:04:08;;;;;;;6.53;3.90;;;;;;;16.87;33.73;99238.31;5035883;28;20094;-77
2021/04/27 04:06:33;;;;;;;4.55;3.63;;;;;;;16.85;34.03;99243.03;5035841;28;20060;-77
2021/04/27 04:08:59;;;;;;;4.70;3.90;;;;;;;16.82;34.45;99246.97;5035906;28;20033;-76
2021/04/27 04:11:25;;;;;;;6.53;3.60;;;;;;;16.70;34.40;99239.97;5035909;28;20034;-78
2021/04/27 04:13:50;;;;;;;5.45;3.78;;;;;;;16.80;34.43;99248.25;5018424;28;20048;-76
2021/04/27 04:16:16;;;;;;;5.82;4.10;;;;;;;16.43;34.35;99197.63;5035766;28;20026;-77
2021/04/27 04:18:41;;;;;;;5.25;3.95;;;;;;;16.62;34.58;99238.41;5035895;28;20041;-77
2021/04/27 04:21:07;;;;;;;6.28;4.43;;;;;;;16.44;34.49;99209.09;5035802;28;20033;-77
2021/04/27 04:23:32;;;;;;;8.45;5.45;;;;;;;16.75;34.66;99267.59;5018013;28;20126;-77
2021/04/27 04:25:58;;;;;;;7.47;4.20;;;;;;;16.84;34.55;99268.09;5035574;28;20452;-78
2021/04/27 04:28:24;;;;;;;8.40;5.22;;;;;;;16.55;34.64;99224.34;5035657;28;20163;-78
2021/04/27 04:30:49;;;;;;;8.40;5.38;;;;;;;16.78;34.53;99268.97;5035400;28;20033;-77
2021/04/27 04:33:15;;;;;;;7.65;5.47;;;;;;;16.91;34.40;99281.31;5017749;28;20028;-78
2021/04/27 04:35:41;;;;;;;9.15;4.85;;;;;;;16.53;34.38;99219.22;5034325;28;20428;-77
2021/04/27 04:38:06;;;;;;;8.75;4.82;;;;;;;16.97;34.68;99289.25;5017595;28;20072;-78
2021/04/27 04:40:32;;;;;;;11.32;6.40;;;;;;;16.66;34.53;99226.28;5035243;28;20100;-78
2021/04/27 04:42:59;;;;;;;10.07;5.88;;;;;;;16.68;34.65;99234.03;5035273;28;20025;-77
2021/04/27 04:45:25;;;;;;;5.55;3.88;;;;;;;16.75;34.49;99237.44;5038178;28;20025;-76
2021/04/27 04:47:52;;;;;;;9.05;4.25;;;;;;;17.07;34.60;99286.03;5036307;28;20055;-78
2021/04/27 04:50:18;;;;;;;5.30;3.67;;;;;;;17.22;34.65;99294.47;5034971;28;20029;-76
2021/04/27 04:52:44;;;;;;;5.50;3.80;;;;;;;16.55;34.63;99184.34;5034974;28;20416;-78
2021/04/27 04:55:10;;;;;;;5.03;4.00;;;;;;;16.84;35.08;99228.09;5034816;28;20065;-78
2021/04/27 04:57:36;;;;;;;7.78;4.40;;;;;;;17.28;34.96;99292.75;5017404;28;20384;-77
2021/04/27 05:00:05;;;;;;;8.15;4.22;;;;;;;17.33;35.28;99300.88;5034905;28;20025;-78
2021/04/27 05:02:31;;;;;;;4.57;4.10;;;;;;;17.37;35.35;99300.19;5034876;28;20411;-78
2021/04/27 05:04:56;;;;;;;6.45;3.80;;;;;;;17.03;35.13;99250.19;5034838;28;20064;-76
2021/04/27 05:07:23;;;;;;;7.25;4.53;;;;;;;17.21;34.71;99257.34;5035912;28;20112;-78
2021/04/27 05:09:49;;;;;;;5.10;3.95;;;;;;;17.13;35.10;99245.13;5017181;28;20067;-78
2021/04/27 05:12:14;;;;;;;5.40;4.20;;;;;;;17.18;35.16;99249.78;5034440;28;20057;-78
2021/04/27 05:14:42;;;;;;;4.40;3.88;;;;;;;17.42;35.03;99303.00;5034850;28;20460;-77
2021/04/27 05:17:09;;;;;;;6.03;3.88;;;;;;;17.19;35.21;99264.75;5034617;28;20029;-77
2021/04/27 05:19:36;;;;;;;4.88;3.67;;;;;;;16.95;35.61;99237.16;5017195;28;20036;-78
2021/04/27 05:22:02;;;;;;;8.30;4.13;;;;;;;17.17;35.49;99283.66;5034778;28;20032;-76
2021/04/27 05:24:29;;;;;;;5.35;3.70;;;;;;;17.38;35.37;99314.34;5034384;28;20033;-78
2021/04/27 05:26:55;;;;;;;8.57;3.80;;;;;;;17.41;35.53;99320.06;5045211;28;20343;-78
2021/04/27 05:29:21;;;;;;;6.63;4.25;;;;;;;17.22;35.63;99270.47;5053953;28;20033;-77
2021/04/27 05:31:48;;;;;;;6.43;4.10;;;;;;;17.46;35.77;99306.84;5042968;28;20033;-78
2021/04/27 05:34:15;;;;;;;5.80;4.15;;;;;;;17.10;35.95;99233.06;5035736;28;20037;-79
2021/04/27 05:36:41;;;;;;;8.35;4.18;;;;;;;17.44;36.22;99289.41;5028609;28;20039;-79
2021/04/27 05:39:06;;;;;;;6.57;3.90;;;;;;;17.41;36.07;99277.34;5054351;28;20024;-76
2021/04/27 05:41:31;;;;;;;6.72;4.63;;;;;;;17.21;36.16;99236.00;5034180;28;20038;-78
2021/04/27 05:43:57;;;;;;;9.77;5.82;;;;;;;17.57;36.35;99285.72;5014739;28;20061;-77
2021/04/27 05:46:22;;;;;;;6.78;5.55;;;;;;;17.39;36.21;99244.75;5016708;28;20025;-78
2021/04/27 05:48:48;;;;;;;17.85;5.82;;;;;;;17.45;36.00;99273.19;5023668;28;20083;-75
2021/04/27 05:51:13;;;;;;;10.02;5.90;;;;;;;17.52;36.01;99273.06;5054263;28;20072;-77
2021/04/27 05:53:39;;;;;;;11.48;7.70;;;;;;;17.71;37.16;99301.34;5026096;28;20035;-77
2021/04/27 05:56:04;;;;;;;15.38;8.63;;;;;;;17.24;37.84;99239.03;5037761;28;20100;-78
2021/04/27 05:58:29;;;;;;;8.63;6.45;;;;;;;17.73;38.39;99312.59;5038164;28;20032;-75
2021/04/27 06:00:55;;;;;;;10.18;6.60;;;;;;;17.47;38.98;99264.94;5038497;28;20034;-79
2021/04/27 06:03:20;;;;;;;11.55;6.35;;;;;;;17.27;39.58;99253.75;5049224;28;20040;-78
2021/04/27 06:05:46;;;;;;;11.77;7.18;;;;;;;17.52;39.97;99299.78;5043251;28;20400;-77
2021/04/27 06:08:11;;;;;;;9.10;5.82;;;;;;;17.33;39.56;99272.34;5037203;28;20120;-76
2021/04/27 06:10:36;;;;;;;10.77;5.93;;;;;;;17.51;39.67;99297.31;5020305;28;20025;-75
2021/04/27 06:13:02;;;;;;;9.10;7.97;;;;;;;17.44;39.88;99279.56;5039665;28;20107;-77
2021/04/27 06:15:27;;;;;;;10.65;7.30;;;;;;;17.51;39.64;99278.66;5037530;28;20098;-79
2021/04/27 06:17:53;;;;;;;11.88;6.32;;;;;;;17.69;39.58;99292.75;5055634;28;20553;-77
2021/04/27 06:20:18;;;;;;;8.88;6.53;;;;;;;17.43;39.29;99253.09;5055672;28;20029;-77
2021/04/27 06:22:44;;;;;;;8.02;5.80;;;;;;;17.51;39.50;99267.97;5043135;28;20017;-76
2021/04/27 06:25:10;;;;;;;8.82;6.18;;;;;;;17.76;39.42;99296.13;5039916;28;20033;-78
2021/04/27 06:27:37;;;;;;;9.43;6.47;;;;;;;17.77;39.04;99270.22;5018153;28;20340;-77
2021/04/27 06:30:05;;;;;;;11.50;6.68;;;;;;;17.93;38.91;99287.47;5045181;28;20036;-78
2021/04/27 06:32:30;;;;;;;9.75;6.90;;;;;;;17.95;38.83;99298.72;5025642;28;20026;-78
2021/04/27 06:34:56;;;;;;;7.38;6.35;;;;;;;17.98;38.86;99288.38;5029538;28;20025;-77
2021/04/27 06:37:22;;;;;;;7.43;6.47;;;;;;;17.64;38.84;99244.53;5024896;28;20022;-78
2021/04/27 06:39:47;;;;;;;12.13;7.20;;;;;;;17.75;38.56;99257.09;5036758;28;20411;-75
2021/04/27 06:42:13;;;;;;;7.80;6.28;;;;;;;17.81;38.63;99267.91;5041021;28;20032;-75
2021/04/27 06:44:38;;;;;;;8.95;5.90;;;;;;;17.86;38.50;99260.06;5038051;28;20033;-75
2021/04/27 06:47:06;;;;;;;12.18;6.88;;;;;;;17.82;39.91;99256.19;5044681;28;20029;-75
2021/04/27 06:49:32;;;;;;;15.45;7.88;;;;;;;17.83;40.65;99255.94;5043125;28;20462;-74
2021/04/27 06:51:58;;;;;;;13.98;6.90;;;;;;;16.47;40.88;99043.44;5049242;28;20087;-77
2021/04/27 06:54:23;;;;;;;10.98;7.32;;;;;;;17.66;41.27;99199.75;5038130;28;20033;-77
2021/04/27 06:56:49;;;;;;;9.55;7.10;;;;;;;18.02;41.58;99252.16;5039846;28;20359;-75
2021/04/27 06:59:16;;;;;;;10.98;7.70;;;;;;;18.13;41.05;99260.38;5016876;28;20037;-77
2021/04/27 07:01:41;;;;;;;12.30;8.90;;;;;;;17.99;40.83;99203.72;5034275;28;20105;-77
2021/04/27 07:04:07;;;;;;;15.07;10.40;;;;;;;18.37;40.31;99252.09;5035064;28;20124;-77
2021/04/27 07:06:32;;;;;;;10.00;8.05;;;;;;;18.33;40.30;99231.41;5037473;28;20036;-74
2021/04/27 07:08:58;;;;;;;13.68;8.77;;;;;;;18.18;40.10;99204.38;5052340;28;20033;-77
2021/04/27 07:11:23;;;;;;;15.10;9.10;;;;;;;18.43;39.88;99236.97;5049711;28;20032;-73
2021/04/27 07:13:49;;;;;;;13.82;8.05;;;;;;;18.40;39.67;99246.28;5019184;28;20475;-77
2021/04/27 07:16:17;;;;;;;11.60;7.50;;;;;;;18.71;39.43;99271.84;5043452;28;20127;-78
2021/04/27 07:18:42;;;;;;;11.65;6.90;;;;;;;18.79;39.03;99269.84;5042755;28;20033;-77
2021/04/27 07:21:07;;;;;;;10.52;7.43;;;;;;;19.00;38.62;99274.50;5019061;28;20435;-77
2021/04/27 07:23:33;;;;;;;14.65;8.25;;;;;;;18.73;38.21;99210.09;5012827;28;20068;-76
2021/04/27 07:25:58;;;;;;;12.00;8.48;;;;;;;19.23;37.97;99262.88;5037475;28;20033;-76
2021/04/27 07:28:24;;;;;;;11.65;6.85;;;;;;;18.84;37.87;99198.50;5049788;28;20026;-75
2021/04/27 07:30:49;;;;;;;11.68;7.68;;;;;;;18.50;37.53;99146.75;5056619;28;20033;-80
2021/04/27 07:33:14;;;;;;;10.43;7.25;;;;;;;19.34;37.64;99278.91;5022390;28;20108;-75
2021/04/27 07:35:40;;;;;;;11.38;6.82;;;;;;;19.22;37.50;99246.00;5038755;28;20030;-78
2021/04/27 07:38:06;;;;;;;9.00;6.25;;;;;;;19.33;37.30;99229.09;5037023;28;20105;-76
2021/04/27 07:40:33;;;;;;;9.15;6.82;;;;;;;19.35;37.14;99236.91;5018109;28;20121;-76
2021/04/27 07:42:59;;;;;;;12.20;6.20;;;;;;;19.13;37.00;99196.63;5032779;28;20039;-77
2021/04/27 07:45:30;;;;;;;9.05;7.45;;;;;;;19.53;36.93;99236.69;5034529;28;20033;-76
2021/04/27 07:48:04;;;;;;;13.05;7.65;;;;;;;19.61;36.68;99248.84;5033443;28;20032;-76
2021/04/27 07:50:29;;;;;;;11.75;6.72;;;;;;;19.77;36.30;99248.03;5036622;28;20029;-76
2021/04/27 07:52:55;;;;;;;9.25;6.68;;;;;;;19.51;35.92;99197.78;5045949;28;20415;-77
2021/04/27 07:55:21;;;;;;;8.63;6.80;;;;;;;19.94;35.61;99237.28;5026923;28;20040;-77
2021/04/27 07:57:47;;;;;;;11.70;7.30;;;;;;;19.76;35.72;99194.69;5020952;28;20026;-79
2021/04/27 08:00:13;;;;;;;10.07;6.20;;;;;;;20.14;35.25;99223.38;5020798;28;20033;-74
2021/04/27 08:02:39;;;;;;;9.27;6.55;;;;;;;20.46;34.50;99261.09;5035615;28;20031;-76
2021/04/27 08:05:06;;;;;;;11.45;6.85;;;;;;;20.48;34.82;99241.00;5014130;28;20060;-74
2021/04/27 08:07:32;;;;;;;10.18;6.40;;;;;;;20.31;34.63;99192.78;5017934;28;20456;-77
2021/04/27 08:09:57;;;;;;;8.15;6.10;;;;;;;20.57;34.58;99231.47;5040346;28;20108;-76
2021/04/27 08:12:23;;;;;;;7.82;6.90;;;;;;;20.60;34.78;99232.84;5055508;28;20039;-75
2021/04/27 08:14:49;;;;;;;12.55;6.13;;;;;;;20.69;34.16;99225.16;5038708;28;20352;-76
2021/04/27 08:17:15;;;;;;;8.23;5.90;;;;;;;20.81;34.04;99232.03;5018782;28;20053;-77
2021/04/27 08:19:40;;;;;;;9.02;5.97;;;;;;;20.90;33.56;99225.16;5025062;28;20025;-78
2021/04/27 08:22:06;;;;;;;7.60;5.60;;;;;;;20.94;33.57;99231.63;5053720;28;20030;-77
2021/04/27 08:24:33;;;;;;;7.03;5.53;;;;;;;20.72;33.80;99184.41;5036002;28;20131;-76
2021/04/27 08:26:59;;;;;;;7.63;5.70;;;;;;;21.13;34.16;99223.22;5055375;28;20035;-76
2021/04/27 08:29:24;;;;;;;8.02;5.88;;;;;;;21.09;34.48;99204.13;5053453;28;20013;-77
2021/04/27 08:31:50;;;;;;;9.95;6.70;;;;;;;21.27;34.04;99219.09;5052960;28;20024;-78
2021/04/27 08:34:15;;;;;;;8.00;4.72;;;;;;;21.22;33.38;99194.84;5055478;28;20324;-77
2021/04/27 08:36:41;;;;;;;6.90;4.28;;;;;;;21.35;32.68;99207.88;5044248;28;20069;-77
2021/04/27 08:39:06;;;;;;;7.47;5.40;;;;;;;21.40;33.07;99207.09;5035289;28;20038;-77
2021/04/27 08:41:32;;;;;;;11.05;5.15;;;;;;;21.54;32.30;99216.34;5036311;28;20442;-76
2021/04/27 08:43:58;;;;;;;8.50;4.97;;;;;;;21.44;31.75;99175.97;5028797;28;20409;-77
2021/04/27 08:46:23;;;;;;;5.55;4.53;;;;;;;21.64;31.66;99181.50;5030833;28;20025;-75
2021/04/27 08:48:49;;;;;;;5.57;4.68;;;;;;;21.88;31.44;99195.38;5039086;28;20032;-78
2021/04/27 08:51:15;;;;;;;6.22;5.32;;;;;;;22.05;31.21;99190.66;5030973;28;20021;-75
2021/04/27 08:53:40;;;;;;;6.40;4.88;;;;;;;21.87;31.11;99140.00;5036713;28;20048;-77
2021/04/27 08:56:07;;;;;;;4.68;3.90;;;;;;;22.16;30.44;99192.31;5030345;28;20344;-78
2021/04/27 08:58:33;;;;;;;7.47;5.00;;;;;;;22.31;30.31;99182.72;5035379;28;20021;-76
2021/04/27 09:00:58;;;;;;;6.75;5.63;;;;;;;22.14;30.06;99126.41;5032795;28;20039;-76
2021/04/27 09:03:23;;;;;;;6.25;4.30;;;;;;;22.28;29.76;99159.00;5032660;28;20021;-75
2021/04/27 09:05:49;;;;;;;7.55;4.28;;;;;;;22.68;29.59;99177.19;5034372;28;20104;-77
2021/04/27 09:08:15;;;;;;;7.75;5.63;;;;;;;22.79;29.37;99176.94;5035911;28;20021;-77
2021/04/27 09:10:45;;;;;;;7.03;6.00;;;;;;;23.09;28.66;99160.06;5038291;28;20037;-76
2021/04/27 09:13:13;;;;;;;5.13;4.40;;;;;;;23.10;28.14;99171.63;5034380;28;20029;-80
2021/04/27 09:15:44;;;;;;;4.70;3.47;;;;;;;23.13;27.79;99150.38;5048562;28;20025;-77
2021/04/27 09:18:22;;;;;;;6.80;5.68;;;;;;;23.44;27.99;99155.72;5036884;28;20025;-77
2021/04/27 09:20:52;;;;;;;6.03;3.80;;;;;;;23.55;27.36;99113.44;5035876;28;20036;-76
2021/04/27 09:23:18;;;;;;;3.63;3.33;;;;;;;23.89;26.94;99137.88;5036772;28;20027;-76
2021/04/27 09:26:07;;;;;;;5.63;3.70;;;;;;;24.01;26.38;99138.38;5027579;28;20033;-78
2021/04/27 09:28:44;;;;;;;7.45;4.78;;;;;;;24.09;26.17;99113.53;5020060;28;20032;-80
2021/04/27 09:31:38;;;;;;;5.70;3.22;;;;;;;24.24;25.89;99129.66;5036724;28;20021;-77
2021/04/27 09:34:25;;;;;;;9.32;3.80;;;;;;;24.31;25.85;99135.56;5035784;28;20120;-77
2021/04/27 09:36:53;;;;;;;4.55;3.72;;;;;;;24.22;25.67;99107.53;5032006;28;20041;-77
2021/04/27 09:39:21;;;;;;;5.65;2.83;;;;;;;24.49;24.87;99117.94;5033378;28;20053;-77
2021/04/27 09:41:57;;;;;;;3.28;2.97;;;;;;;24.39;23.98;99064.84;5017534;28;20068;-76
2021/04/27 09:44:53;;;;;;;6.00;4.05;;;;;;;24.71;24.98;99104.84;5040657;28;20021;-77
2021/04/27 09:47:29;;;;;;;4.57;3.20;;;;;;;24.70;24.65;99097.84;5033136;28;20048;-77
2021/04/27 09:50:09;;;;;;;5.28;3.42;;;;;;;24.63;24.64;99094.66;5036733;28;20354;-78
2021/04/27 09:52:54;;;;;;;5.20;3.05;;;;;;;24.70;22.66;99083.53;5026735;28;20104;-78
2021/04/27 09:55:20;;;;;;;4.28;3.33;;;;;;;24.37;23.51;98991.44;5052773;28;20045;-77
2021/04/27 09:57:51;;;;;;;6.03;3.67;;;;;;;24.91;22.93;99070.69;5054260;28;20021;-80
2021/04/27 10:00:22;;;;;;;5.60;4.57;;;;;;;24.86;23.72;99092.31;5021489;28;20026;-76
2021/04/27 10:02:49;;;;;;;4.65;3.20;;;;;;;24.37;23.23;99036.53;5013698;28;20406;-77
2021/04/27 10:05:14;;;;;;;3.65;3.05;;;;;;;24.58;23.21;99094.69;5021455;28;20029;-77
2021/04/27 10:07:42;;;;;;;5.78;3.30;;;;;;;24.33;22.92;99021.97;5033409;28;20029;-77
2021/04/27 10:10:10;;;;;;;3.72;2.78;;;;;;;24.38;22.85;99070.50;5037033;28;20024;-78
2021/04/27 10:12:36;;;;;;;7.43;3.95;;;;;;;24.25;23.04;99071.91;5044938;28;20108;-79
2021/04/27 10:15:02;;;;;;;3.42;2.90;;;;;;;24.14;22.91;99091.94;5015800;28;20482;-75
2021/04/27 10:17:28;;;;;;;4.88;3.17;;;;;;;23.85;22.75;99066.72;5044986;28;20108;-75
2021/04/27 10:19:54;;;;;;;5.90;4.38;;;;;;;23.92;22.81;99076.13;5038063;28;20385;-76
2021/04/27 10:22:19;;;;;;;6.07;3.45;;;;;;;23.89;22.70;99065.91;5034113;28;20026;-75
2021/04/27 10:24:45;;;;;;;5.40;3.63;;;;;;;23.78;22.57;99075.09;5039166;28;20025;-77
2021/04/27 10:27:11;;;;;;;5.10;3.30;;;;;;;23.62;22.39;99062.75;5038288;28;20087;-78
2021/04/27 10:29:37;;;;;;;5.38;3.65;;;;;;;23.60;22.39;99073.00;5018314;28;20348;-76
2021/04/27 10:32:21;;;;;;;4.78;3.97;;;;;;;23.60;22.81;99078.38;5034771;28;20021;-78
2021/04/27 10:34:58;;;;;;;4.30;2.97;;;;;;;23.46;22.27;99068.16;5037068;28;20025;-75
2021/04/27 10:37:51;;;;;;;6.68;3.78;;;;;;;23.40;22.46;99071.94;5033134;28;20025;-79
2021/04/27 10:40:43;;;;;;;7.88;6.50;;;;;;;23.43;21.64;99068.69;5053527;28;20443;-79
2021/04/27 10:43:27;;;;;;;;;;;;;;;23.54;22.59;99069.47;5037147;28;20025;-78
2021/04/27 10:45:56;;;;;;;9.50;6.40;;;;;;;24.10;21.91;99072.00;5016955;28;19916;-77
2021/04/27 10:48:39;;;;;;;6.75;5.85;;;;;;;24.43;21.23;99034.59;5035497;28;20021;-76
2021/04/27 10:51:23;;;;;;;8.20;4.38;;;;;;;25.06;20.31;99077.88;5020046;28;20032;-77
2021/04/27 10:54:16;;;;;;;6.30;4.55;;;;;;;25.52;19.48;99064.72;5020817;28;20259;-77
2021/04/27 10:56:54;;;;;;;5.30;3.58;;;;;;;25.86;19.32;99053.81;5031882;28;20432;-76
2021/04/27 10:59:25;;;;;;;4.63;3.15;;;;;;;25.87;18.48;99014.84;5009955;28;20025;-76
2021/04/27 11:02:13;;;;;;;4.00;3.40;;;;;;;26.04;16.90;99066.56;5035486;28;20029;-77
2021/04/27 11:04:43;;;;;;;3.05;2.70;;;;;;;25.78;18.55;99059.84;5050152;28;20047;-76
2021/04/27 11:07:23;;;;;;;5.40;2.60;;;;;;;25.60;18.32;99045.97;5029171;28;20037;-78
2021/04/27 11:09:58;;;;;;;7.35;4.30;;;;;;;25.83;18.37;99048.97;5041777;28;20044;-76
2021/04/27 11:12:32;;;;;;;4.05;2.65;;;;;;;25.68;18.10;99046.47;5009097;28;20028;-76
2021/04/27 11:15:27;;;;;;;5.50;3.38;;;;;;;25.48;18.79;99036.66;5035203;28;20367;-78
2021/04/27 11:17:56;;;;;;;4.03;2.80;;;;;;;25.34;18.53;99039.25;5021061;28;20042;-76
2021/04/27 11:21:01;;;;;;;3.72;3.03;;;;;;;25.15;19.01;99043.75;5034445;28;20029;-76
2021/04/27 11:23:45;;;;;;;3.72;3.33;;;;;;;25.00;19.21;98993.38;5034474;28;20055;-79
2021/04/27 11:26:28;;;;;;;6.32;3.67;;;;;;;25.46;18.94;99026.13;5025796;28;20036;-75
2021/04/27 11:28:59;;;;;;;4.07;3.13;;;;;;;25.41;18.95;98979.44;5035508;28;20033;-79
2021/04/27 11:31:25;;;;;;;3.90;3.53;;;;;;;25.90;19.12;99017.78;5030230;28;21975;-79
2021/04/27 11:33:58;;;;;;;4.38;3.28;;;;;;;25.95;18.41;98993.34;5035053;28;20041;-77
2021/04/27 11:36:35;;;;;;;4.28;3.88;;;;;;;26.18;18.95;99001.72;5035761;28;20042;-78